EZY85T EGNT-EGAA
Flight info
| Callsign | EZY85T |
|---|---|
| Flight time | 0h 36m |
| Altitude | 24000 |
| Route | BLACA DCT BELZU |
| Aircraft | A320/M-SDE3FGHIRWY/LB1 |
Departure
| Time | 2026-05-05 15:36 |
|---|---|
| Airport | Newcastle International Airport (EGNT) |
Arrival
| Time | 2026-05-05 16:12 |
|---|---|
| Airport | Belfast International Airport (EGAA) |
| Time | Latitude | Longitude | Altitude | Speed | Heading |
|---|---|---|---|---|---|
| 2026-05-05 15:21 | 55.03659 | -1.70711 | 268 ft | 0 kts | 4° |
| 2026-05-05 15:30 | 55.03644 | -1.70714 | 268 ft | 4 kts | 9° |
| 2026-05-05 15:30 | 55.03618 | -1.70726 | 268 ft | 4 kts | 29° |
| 2026-05-05 15:30 | 55.03599 | -1.70754 | 268 ft | 4 kts | 73° |
| 2026-05-05 15:30 | 55.03597 | -1.70771 | 268 ft | 1 kts | 94° |
| 2026-05-05 15:33 | 55.03597 | -1.70760 | 268 ft | 5 kts | 94° |
| 2026-05-05 15:33 | 55.03583 | -1.70662 | 268 ft | 9 kts | 129° |
| 2026-05-05 15:33 | 55.03528 | -1.70642 | 267 ft | 8 kts | 182° |
| 2026-05-05 15:33 | 55.03476 | -1.70645 | 268 ft | 6 kts | 182° |
| 2026-05-05 15:34 | 55.03433 | -1.70648 | 268 ft | 6 kts | 182° |
| 2026-05-05 15:34 | 55.03390 | -1.70643 | 268 ft | 6 kts | 164° |
| 2026-05-05 15:34 | 55.03366 | -1.70587 | 268 ft | 6 kts | 89° |
| 2026-05-05 15:34 | 55.03371 | -1.70566 | 268 ft | 0 kts | 64° |
| 2026-05-05 15:35 | 55.03378 | -1.70543 | 268 ft | 11 kts | 65° |
| 2026-05-05 15:35 | 55.03545 | -1.69913 | 262 ft | 109 kts | 65° |
| 2026-05-05 15:35 | 55.03973 | -1.68299 | 468 ft | 167 kts | 65° |
| 2026-05-05 15:36 | 55.04471 | -1.66436 | 1350 ft | 171 kts | 65° |
| 2026-05-05 15:36 | 55.04994 | -1.64539 | 2169 ft | 179 kts | 59° |
| 2026-05-05 15:36 | 55.05954 | -1.63029 | 2722 ft | 201 kts | 26° |
| 2026-05-05 15:36 | 55.07396 | -1.62492 | 3292 ft | 228 kts | 357° |
| 2026-05-05 15:37 | 55.08984 | -1.63346 | 4053 ft | 254 kts | 326° |
| 2026-05-05 15:37 | 55.10196 | -1.65700 | 4705 ft | 268 kts | 295° |
| 2026-05-05 15:37 | 55.10539 | -1.68871 | 4881 ft | 267 kts | 269° |
| 2026-05-05 15:37 | 55.10436 | -1.72105 | 4965 ft | 269 kts | 264° |
| 2026-05-05 15:38 | 55.10225 | -1.75373 | 5999 ft | 270 kts | 263° |
| 2026-05-05 15:38 | 55.09994 | -1.78646 | 7357 ft | 273 kts | 263° |
| 2026-05-05 15:38 | 55.09772 | -1.81973 | 8608 ft | 278 kts | 263° |
| 2026-05-05 15:38 | 55.09565 | -1.85371 | 9814 ft | 284 kts | 264° |
| 2026-05-05 15:39 | 55.09372 | -1.88831 | 10969 ft | 289 kts | 264° |
| 2026-05-05 15:39 | 55.09186 | -1.92317 | 12077 ft | 295 kts | 265° |
| 2026-05-05 15:39 | 55.08997 | -1.95951 | 13182 ft | 300 kts | 265° |
| 2026-05-05 15:39 | 55.08810 | -1.99565 | 14220 ft | 305 kts | 265° |
| 2026-05-05 15:40 | 55.08617 | -2.03283 | 15238 ft | 310 kts | 265° |
| 2026-05-05 15:40 | 55.08424 | -2.07053 | 16218 ft | 314 kts | 265° |
| 2026-05-05 15:40 | 55.08226 | -2.10884 | 17168 ft | 319 kts | 265° |
| 2026-05-05 15:40 | 55.08022 | -2.14770 | 18097 ft | 324 kts | 265° |
| 2026-05-05 15:41 | 55.07810 | -2.18718 | 19006 ft | 329 kts | 264° |
| 2026-05-05 15:41 | 55.07596 | -2.22719 | 19885 ft | 333 kts | 264° |
| 2026-05-05 15:41 | 55.07381 | -2.26742 | 20729 ft | 338 kts | 264° |
| 2026-05-05 15:41 | 55.07162 | -2.30851 | 21557 ft | 343 kts | 264° |
| 2026-05-05 15:42 | 55.06938 | -2.35016 | 22357 ft | 347 kts | 264° |
| 2026-05-05 15:42 | 55.06710 | -2.39246 | 23137 ft | 352 kts | 264° |
| 2026-05-05 15:42 | 55.06476 | -2.43521 | 23758 ft | 357 kts | 264° |
| 2026-05-05 15:42 | 55.06236 | -2.47835 | 23946 ft | 358 kts | 264° |
| 2026-05-05 15:43 | 55.05994 | -2.52153 | 24006 ft | 357 kts | 264° |
| 2026-05-05 15:43 | 55.05751 | -2.56476 | 24009 ft | 357 kts | 264° |
| 2026-05-05 15:43 | 55.05507 | -2.60789 | 24009 ft | 357 kts | 264° |
| 2026-05-05 15:43 | 55.05258 | -2.65100 | 24009 ft | 357 kts | 264° |
| 2026-05-05 15:44 | 55.05011 | -2.69410 | 24009 ft | 357 kts | 264° |
| 2026-05-05 15:44 | 55.04765 | -2.73726 | 24009 ft | 357 kts | 264° |
| 2026-05-05 15:44 | 55.04518 | -2.78030 | 24009 ft | 357 kts | 264° |
| 2026-05-05 15:44 | 55.04273 | -2.82276 | 24009 ft | 356 kts | 264° |
| 2026-05-05 15:45 | 55.04021 | -2.86577 | 24009 ft | 356 kts | 264° |
| 2026-05-05 15:45 | 55.03768 | -2.90874 | 24009 ft | 356 kts | 264° |
| 2026-05-05 15:45 | 55.03515 | -2.95177 | 24010 ft | 356 kts | 264° |
| 2026-05-05 15:45 | 55.03261 | -2.99470 | 24011 ft | 356 kts | 264° |
| 2026-05-05 15:46 | 55.03000 | -3.03768 | 24011 ft | 356 kts | 264° |
| 2026-05-05 15:46 | 55.02736 | -3.08070 | 24011 ft | 356 kts | 264° |
| 2026-05-05 15:46 | 55.02474 | -3.12362 | 24012 ft | 356 kts | 264° |
| 2026-05-05 15:46 | 55.02213 | -3.16659 | 24011 ft | 356 kts | 264° |
| 2026-05-05 15:47 | 55.01954 | -3.20956 | 24011 ft | 356 kts | 264° |
| 2026-05-05 15:47 | 55.01781 | -3.23801 | 24011 ft | 356 kts | 264° |
| 2026-05-05 15:47 | 55.01427 | -3.29544 | 24011 ft | 356 kts | 264° |
| 2026-05-05 15:47 | 55.01157 | -3.33840 | 24011 ft | 356 kts | 264° |
| 2026-05-05 15:48 | 55.00885 | -3.38128 | 24011 ft | 356 kts | 264° |
| 2026-05-05 15:48 | 55.00610 | -3.42420 | 24012 ft | 356 kts | 263° |
| 2026-05-05 15:48 | 55.00338 | -3.46649 | 24012 ft | 356 kts | 263° |
| 2026-05-05 15:48 | 55.00062 | -3.50942 | 24012 ft | 356 kts | 263° |
| 2026-05-05 15:49 | 54.99783 | -3.55235 | 24012 ft | 356 kts | 263° |
| 2026-05-05 15:49 | 54.99506 | -3.59521 | 24012 ft | 356 kts | 263° |
| 2026-05-05 15:49 | 54.99230 | -3.63810 | 24012 ft | 356 kts | 264° |
| 2026-05-05 15:49 | 54.98955 | -3.68101 | 24011 ft | 356 kts | 263° |
| 2026-05-05 15:50 | 54.98675 | -3.72390 | 24010 ft | 356 kts | 263° |
| 2026-05-05 15:50 | 54.98393 | -3.76674 | 24009 ft | 356 kts | 263° |
| 2026-05-05 15:50 | 54.98107 | -3.80969 | 24010 ft | 357 kts | 263° |
| 2026-05-05 15:50 | 54.97821 | -3.85254 | 24010 ft | 356 kts | 263° |
| 2026-05-05 15:51 | 54.97532 | -3.89543 | 24011 ft | 356 kts | 263° |
| 2026-05-05 15:51 | 54.97240 | -3.93829 | 24011 ft | 356 kts | 263° |
| 2026-05-05 15:51 | 54.96948 | -3.98116 | 24011 ft | 356 kts | 263° |
| 2026-05-05 15:51 | 54.96656 | -4.02400 | 24011 ft | 357 kts | 263° |
| 2026-05-05 15:52 | 54.96362 | -4.06684 | 24011 ft | 357 kts | 263° |
| 2026-05-05 15:52 | 54.96066 | -4.10966 | 24010 ft | 357 kts | 263° |
| 2026-05-05 15:52 | 54.95767 | -4.15247 | 24011 ft | 357 kts | 263° |
| 2026-05-05 15:52 | 54.95467 | -4.19532 | 24008 ft | 357 kts | 263° |
| 2026-05-05 15:53 | 54.95164 | -4.23825 | 24009 ft | 357 kts | 263° |
| 2026-05-05 15:53 | 54.94862 | -4.28106 | 24009 ft | 357 kts | 263° |
| 2026-05-05 15:53 | 54.94557 | -4.32398 | 24008 ft | 357 kts | 263° |
| 2026-05-05 15:53 | 54.94257 | -4.36626 | 24007 ft | 357 kts | 263° |
| 2026-05-05 15:54 | 54.93952 | -4.40906 | 24010 ft | 357 kts | 263° |
| 2026-05-05 15:54 | 54.93647 | -4.45190 | 24012 ft | 357 kts | 263° |
| 2026-05-05 15:54 | 54.93340 | -4.49473 | 24014 ft | 357 kts | 263° |
| 2026-05-05 15:54 | 54.93030 | -4.53781 | 24014 ft | 357 kts | 263° |
| 2026-05-05 15:55 | 54.92717 | -4.58055 | 24017 ft | 357 kts | 263° |
| 2026-05-05 15:55 | 54.92400 | -4.62329 | 24020 ft | 357 kts | 263° |
| 2026-05-05 15:55 | 54.92086 | -4.66558 | 24014 ft | 357 kts | 263° |
| 2026-05-05 15:55 | 54.91767 | -4.70827 | 24013 ft | 357 kts | 263° |
| 2026-05-05 15:56 | 54.91447 | -4.75106 | 24013 ft | 357 kts | 263° |
| 2026-05-05 15:56 | 54.91129 | -4.79377 | 24013 ft | 357 kts | 263° |
| 2026-05-05 15:56 | 54.90807 | -4.83661 | 24012 ft | 357 kts | 262° |
| 2026-05-05 15:56 | 54.90483 | -4.87932 | 24013 ft | 357 kts | 262° |
| 2026-05-05 15:57 | 54.90158 | -4.92207 | 24013 ft | 357 kts | 262° |
| 2026-05-05 15:57 | 54.89832 | -4.96502 | 23873 ft | 366 kts | 262° |
| 2026-05-05 15:57 | 54.89489 | -5.01012 | 22968 ft | 382 kts | 262° |
| 2026-05-05 15:57 | 54.89139 | -5.05548 | 22391 ft | 377 kts | 262° |
| 2026-05-05 15:58 | 54.88789 | -5.10059 | 21848 ft | 376 kts | 262° |
| 2026-05-05 15:58 | 54.88432 | -5.14484 | 21306 ft | 373 kts | 260° |
| 2026-05-05 15:58 | 54.87760 | -5.18808 | 20722 ft | 369 kts | 251° |
| 2026-05-05 15:58 | 54.86910 | -5.22997 | 20111 ft | 366 kts | 250° |
| 2026-05-05 15:59 | 54.86064 | -5.27156 | 19530 ft | 363 kts | 250° |
| 2026-05-05 15:59 | 54.85225 | -5.31262 | 18932 ft | 360 kts | 250° |
| 2026-05-05 15:59 | 54.84393 | -5.35329 | 18340 ft | 356 kts | 250° |
| 2026-05-05 15:59 | 54.83566 | -5.39367 | 17758 ft | 353 kts | 250° |
| 2026-05-05 16:00 | 54.82747 | -5.43366 | 17181 ft | 350 kts | 250° |
| 2026-05-05 16:00 | 54.81933 | -5.47329 | 16618 ft | 347 kts | 250° |
| 2026-05-05 16:00 | 54.81126 | -5.51253 | 16058 ft | 344 kts | 250° |
| 2026-05-05 16:00 | 54.80325 | -5.55147 | 15500 ft | 341 kts | 250° |
| 2026-05-05 16:01 | 54.79531 | -5.59011 | 14945 ft | 338 kts | 250° |
| 2026-05-05 16:01 | 54.78751 | -5.62802 | 14399 ft | 336 kts | 250° |
| 2026-05-05 16:01 | 54.77970 | -5.66586 | 13605 ft | 332 kts | 250° |
| 2026-05-05 16:01 | 54.77196 | -5.70320 | 12723 ft | 327 kts | 250° |
| 2026-05-05 16:02 | 54.76431 | -5.73991 | 11861 ft | 322 kts | 250° |
| 2026-05-05 16:02 | 54.75673 | -5.77619 | 11019 ft | 318 kts | 250° |
| 2026-05-05 16:02 | 54.74943 | -5.81122 | 10499 ft | 299 kts | 250° |
| 2026-05-05 16:02 | 54.74257 | -5.84407 | 9805 ft | 290 kts | 250° |
| 2026-05-05 16:03 | 54.73580 | -5.87637 | 9492 ft | 284 kts | 250° |
| 2026-05-05 16:03 | 54.72891 | -5.90843 | 9365 ft | 285 kts | 246° |
| 2026-05-05 16:03 | 54.71813 | -5.93697 | 9237 ft | 285 kts | 230° |
| 2026-05-05 16:03 | 54.70520 | -5.96293 | 9118 ft | 284 kts | 229° |
| 2026-05-05 16:04 | 54.69211 | -5.98861 | 8993 ft | 284 kts | 229° |
| 2026-05-05 16:04 | 54.67905 | -6.01414 | 8867 ft | 283 kts | 229° |
| 2026-05-05 16:04 | 54.66598 | -6.03967 | 8746 ft | 283 kts | 229° |
| 2026-05-05 16:04 | 54.65292 | -6.06515 | 8408 ft | 282 kts | 229° |
| 2026-05-05 16:05 | 54.63998 | -6.09039 | 8007 ft | 280 kts | 229° |
| 2026-05-05 16:05 | 54.62710 | -6.11547 | 7605 ft | 278 kts | 229° |
| 2026-05-05 16:05 | 54.61431 | -6.14037 | 7204 ft | 276 kts | 229° |
| 2026-05-05 16:05 | 54.60178 | -6.16474 | 6803 ft | 263 kts | 229° |
| 2026-05-05 16:06 | 54.59019 | -6.18725 | 6409 ft | 246 kts | 229° |
| 2026-05-05 16:06 | 54.57912 | -6.20873 | 6015 ft | 233 kts | 229° |
| 2026-05-05 16:06 | 54.56849 | -6.22934 | 5561 ft | 225 kts | 229° |
| 2026-05-05 16:06 | 54.55823 | -6.24921 | 5111 ft | 219 kts | 229° |
| 2026-05-05 16:07 | 54.54822 | -6.26858 | 4659 ft | 215 kts | 229° |
| 2026-05-05 16:07 | 54.53837 | -6.28764 | 4205 ft | 211 kts | 229° |
| 2026-05-05 16:07 | 54.52871 | -6.30631 | 3754 ft | 208 kts | 229° |
| 2026-05-05 16:07 | 54.51974 | -6.32466 | 3509 ft | 195 kts | 240° |
| 2026-05-05 16:08 | 54.51692 | -6.34734 | 3509 ft | 197 kts | 279° |
| 2026-05-05 16:08 | 54.52276 | -6.36794 | 3429 ft | 198 kts | 315° |
| 2026-05-05 16:08 | 54.53402 | -6.38158 | 3238 ft | 200 kts | 334° |
| 2026-05-05 16:08 | 54.54742 | -6.38733 | 3078 ft | 196 kts | 355° |
| 2026-05-05 16:09 | 54.56073 | -6.38920 | 3009 ft | 190 kts | 355° |
| 2026-05-05 16:09 | 54.57391 | -6.38968 | 2875 ft | 190 kts | 11° |
| 2026-05-05 16:09 | 54.58545 | -6.37959 | 2701 ft | 188 kts | 45° |
| 2026-05-05 16:09 | 54.59409 | -6.36267 | 2574 ft | 188 kts | 49° |
| 2026-05-05 16:10 | 54.60314 | -6.34603 | 2332 ft | 192 kts | 43° |
| 2026-05-05 16:10 | 54.61344 | -6.33162 | 2131 ft | 184 kts | 35° |
| 2026-05-05 16:10 | 54.62328 | -6.31966 | 1947 ft | 161 kts | 38° |
| 2026-05-05 16:10 | 54.63130 | -6.30690 | 1688 ft | 153 kts | 46° |
| 2026-05-05 16:11 | 54.63727 | -6.29219 | 1228 ft | 152 kts | 62° |
| 2026-05-05 16:11 | 54.64993 | -6.24384 | 434 ft | 145 kts | 65° |
| 2026-05-05 16:12 | 54.65412 | -6.22828 | 280 ft | 136 kts | 64° |
| 2026-05-05 16:12 | 54.65830 | -6.21284 | 274 ft | 35 kts | 65° |
| 2026-05-05 16:13 | 54.66108 | -6.20245 | 272 ft | 37 kts | 65° |
| 2026-05-05 16:13 | 54.66218 | -6.19838 | 272 ft | 35 kts | 65° |
| 2026-05-05 16:13 | 54.66287 | -6.19650 | 272 ft | 5 kts | 353° |
| 2026-05-05 16:14 | 54.66396 | -6.19815 | 272 ft | 15 kts | 278° |
| 2026-05-05 16:14 | 54.66295 | -6.20235 | 272 ft | 21 kts | 246° |
| 2026-05-05 16:15 | 54.66170 | -6.20698 | 272 ft | 25 kts | 245° |
| 2026-05-05 16:15 | 54.66062 | -6.21202 | 274 ft | 14 kts | 306° |
| 2026-05-05 16:16 | 54.66197 | -6.21331 | 272 ft | 4 kts | 296° |
| 2026-05-05 16:16 | 54.66180 | -6.21414 | 272 ft | 0 kts | 244° |